createdAt,value
2023-05-03T00:04:00.506Z,7.10
2023-05-03T00:09:04.904Z,8.45
2023-05-03T00:14:09.121Z,8.75
2023-05-03T00:19:20.915Z,6.57
2023-05-03T00:24:32.555Z,6.20
2023-05-03T00:29:36.599Z,5.78
2023-05-03T00:34:40.554Z,10.50
2023-05-03T00:39:44.494Z,5.70
2023-05-03T00:44:53.316Z,6.65
2023-05-03T00:49:58.164Z,5.70
2023-05-03T00:55:02.679Z,5.03
2023-05-03T01:00:09.676Z,8.52
2023-05-03T01:05:13.933Z,5.00
2023-05-03T01:10:43.300Z,5.22
2023-05-03T01:15:59.283Z,4.43
2023-05-03T01:21:05.676Z,6.07
2023-05-03T01:26:19.154Z,4.45
2023-05-03T01:31:30.747Z,4.47
2023-05-03T01:36:36.499Z,4.07
2023-05-03T01:41:42.581Z,5.25
2023-05-03T01:46:47.302Z,5.13
2023-05-03T01:51:50.917Z,3.17
2023-05-03T01:56:54.925Z,4.05
2023-05-03T02:01:58.872Z,4.63
2023-05-03T02:07:02.969Z,2.70
2023-05-03T02:12:07.276Z,3.25
2023-05-03T02:17:11.895Z,2.72
2023-05-03T02:22:15.420Z,3.63
2023-05-03T02:27:19.402Z,3.40
2023-05-03T02:32:24.228Z,3.20
2023-05-03T02:37:28.448Z,3.70
2023-05-03T02:42:33.835Z,3.20
2023-05-03T02:47:38.497Z,3.33
2023-05-03T02:52:43.248Z,3.40
2023-05-03T02:57:46.732Z,2.55
2023-05-03T03:02:55.411Z,2.17
2023-05-03T03:07:59.764Z,2.50
2023-05-03T03:13:04.113Z,3.17
2023-05-03T03:18:13.978Z,3.03
2023-05-03T03:23:17.643Z,2.70
2023-05-03T03:28:22.133Z,2.70
2023-05-03T03:33:26.529Z,3.80
2023-05-03T03:38:36.178Z,2.30
2023-05-03T03:43:43.867Z,2.53
2023-05-03T03:48:52.348Z,2.65
2023-05-03T03:53:57.880Z,2.45
2023-05-03T03:59:05.735Z,2.83
2023-05-03T04:04:10.160Z,3.38
2023-05-03T04:09:14.866Z,2.03
2023-05-03T04:14:18.791Z,2.67
2023-05-03T04:19:26.299Z,2.50
2023-05-03T04:24:31.142Z,2.10
2023-05-03T04:29:35.263Z,2.88
2023-05-03T04:34:39.456Z,1.88
2023-05-03T04:39:43.045Z,3.33
2023-05-03T04:44:46.587Z,1.95
2023-05-03T04:49:51.040Z,1.20
2023-05-03T04:54:54.921Z,2.05
2023-05-03T05:00:09.101Z,1.60
2023-05-03T05:05:20.547Z,1.83
2023-05-03T05:10:25.266Z,1.42
2023-05-03T05:15:30.706Z,3.73
2023-05-03T05:20:35.548Z,2.08
2023-05-03T05:25:40.634Z,1.88
2023-05-03T05:30:44.349Z,1.80
2023-05-03T05:35:49.576Z,2.72
2023-05-03T05:40:57.628Z,1.60
2023-05-03T05:46:02.006Z,1.73
2023-05-03T05:51:06.444Z,2.25
2023-05-03T05:56:11.601Z,2.88
2023-05-03T06:01:15.811Z,1.10
2023-05-03T06:06:19.325Z,2.03
2023-05-03T06:11:22.561Z,1.77
2023-05-03T06:16:26.546Z,0.80
2023-05-03T06:21:30.515Z,1.00
2023-05-03T06:26:33.730Z,2.03
2023-05-03T06:31:38.565Z,1.90
2023-05-03T06:36:42.072Z,0.40
2023-05-03T06:41:45.387Z,0.43
2023-05-03T06:46:49.662Z,0.47
2023-05-03T06:51:53.104Z,0.50
2023-05-03T06:56:56.821Z,2.22
2023-05-03T07:02:00.146Z,1.13
2023-05-03T07:07:03.393Z,0.75
2023-05-03T07:12:07.874Z,0.47
2023-05-03T07:17:11.411Z,0.57
2023-05-03T07:22:14.963Z,1.40
2023-05-03T07:27:18.620Z,2.17
2023-05-03T07:32:22.780Z,0.57
2023-05-03T07:37:28.210Z,0.68
2023-05-03T07:42:31.675Z,1.13
2023-05-03T07:47:38.321Z,2.08
2023-05-03T07:52:43.728Z,1.88
2023-05-03T07:57:47.392Z,1.48
2023-05-03T08:02:50.695Z,1.40
2023-05-03T08:07:53.947Z,0.88
2023-05-03T08:12:58.033Z,2.20
2023-05-03T08:18:01.763Z,2.13
2023-05-03T08:23:05.754Z,2.03
2023-05-03T08:28:09.309Z,1.40
2023-05-03T08:33:13.457Z,1.63
2023-05-03T08:38:17.576Z,2.30
2023-05-03T08:43:22.892Z,2.53
2023-05-03T08:48:27.720Z,2.28
2023-05-03T08:53:33.457Z,1.70
2023-05-03T08:58:39.036Z,1.75
2023-05-03T09:03:54.045Z,3.07
2023-05-03T09:08:58.701Z,2.00
2023-05-03T09:14:13.180Z,2.65
2023-05-03T09:19:17.416Z,3.33
2023-05-03T09:24:22.584Z,3.60
2023-05-03T09:29:31.744Z,1.67
2023-05-03T09:34:37.491Z,3.67
2023-05-03T09:39:46.030Z,1.45
2023-05-03T09:44:54.301Z,1.08
2023-05-03T09:49:57.872Z,1.77
2023-05-03T09:55:01.397Z,2.03
2023-05-03T10:00:05.519Z,3.55
2023-05-03T10:05:16.757Z,2.88
2023-05-03T10:10:21.714Z,2.53
2023-05-03T10:15:27.748Z,2.08
2023-05-03T10:20:55.084Z,2.58
2023-05-03T10:26:10.007Z,2.28
2023-05-03T10:31:49.018Z,2.67
2023-05-03T10:36:54.519Z,4.10
2023-05-03T10:42:08.644Z,2.75
2023-05-03T10:47:19.752Z,3.30
2023-05-03T10:52:41.401Z,4.28
2023-05-03T10:57:48.628Z,6.00
2023-05-03T11:03:13.831Z,3.67
2023-05-03T11:08:22.268Z,6.53
2023-05-03T11:13:25.590Z,4.90
2023-05-03T11:18:29.084Z,4.90
2023-05-03T11:23:33.088Z,3.10
2023-05-03T11:28:55.834Z,7.20
2023-05-03T11:33:59.932Z,4.20
2023-05-03T11:39:06.067Z,4.75
2023-05-03T11:44:16.891Z,2.83
2023-05-03T11:49:20.909Z,3.97
2023-05-03T11:54:27.330Z,2.97
2023-05-03T11:59:41.485Z,2.78
2023-05-03T12:04:46.260Z,1.95
2023-05-03T12:10:00.919Z,3.20
2023-05-03T12:15:16.225Z,2.33
2023-05-03T12:25:34.897Z,3.00
2023-05-03T12:30:40.590Z,2.30
2023-05-03T12:35:47.709Z,2.28
2023-05-03T12:40:51.884Z,1.52
2023-05-03T12:46:20.173Z,3.70
2023-05-03T12:51:22.843Z,2.15
2023-05-03T12:56:32.735Z,2.92
2023-05-03T13:02:38.761Z,2.42
2023-05-03T13:07:01.803Z,2.75
2023-05-03T13:12:05.497Z,2.05
2023-05-03T13:17:08.755Z,3.60
2023-05-03T13:22:13.282Z,2.17
2023-05-03T13:27:18.475Z,1.65
2023-05-03T13:32:21.965Z,0.85
2023-05-03T13:37:25.721Z,1.85
2023-05-03T13:42:30.186Z,2.88
2023-05-03T13:47:53.006Z,2.38
2023-05-03T13:52:57.269Z,4.15
2023-05-03T13:58:01.407Z,5.32
2023-05-03T14:03:05.046Z,1.90
2023-05-03T14:08:09.018Z,2.63
2023-05-03T14:13:13.792Z,2.47
2023-05-03T14:18:17.877Z,2.03
2023-05-03T14:23:21.357Z,2.33
2023-05-03T14:28:24.556Z,2.38
2023-05-03T14:33:28.431Z,1.92
2023-05-03T14:38:32.343Z,2.55
2023-05-03T14:43:35.565Z,2.30
2023-05-03T14:48:39.572Z,2.50
2023-05-03T14:53:43.201Z,3.05
2023-05-03T14:58:46.497Z,1.98
2023-05-03T15:03:50.339Z,1.60
2023-05-03T15:08:54.847Z,3.58
2023-05-03T15:13:59.197Z,2.75
2023-05-03T15:19:03.056Z,2.85
2023-05-03T15:24:07.350Z,4.50
2023-05-03T15:29:11.376Z,3.95
2023-05-03T15:34:15.608Z,2.75
2023-05-03T15:39:18.840Z,2.85
2023-05-03T15:44:22.652Z,3.50
2023-05-03T15:49:27.754Z,1.80
2023-05-03T15:54:31.973Z,2.35
2023-05-03T15:59:36.367Z,3.65
2023-05-03T16:04:40.514Z,3.47
2023-05-03T16:09:44.233Z,3.88
2023-05-03T16:14:48.439Z,4.55
2023-05-03T16:19:52.368Z,2.97
2023-05-03T16:24:55.980Z,2.45
2023-05-03T16:30:00.273Z,4.10
2023-05-03T16:35:04.662Z,4.50
2023-05-03T16:40:11.949Z,6.95
2023-05-03T16:45:17.123Z,2.97
2023-05-03T16:50:21.414Z,2.88
